»·PEaware :: SWA671 KSLC-KLAX

SWA671 :: KSLC-KLAX

FLIGHT INFORMATION

Flight Status: Arrived
Operator:
Southwest Airlines
More flights by this operator :: More flights under this callsign
Pilot: Maximilliano F. (23467)
Aircraft: BOEING 737-800
(B738)
More flights by this aircraft type
Origin: KSLC Salt Lake City Intl
United States
Destination: KLAX Los Angeles Intl
United States
More flights between these airports :: More routes between these airports
Route: +ZIONZ1 EHK LAKRR Q88 HAKMN ANJLL4
File this flight plan on PilotEdge
Remarks: RMK / SIMBRIEF
Altitude:
(Current/Filed)
34,000ft
Speed:
(Current/Filed)
454kts
Departed: 30-Oct-19 07:22 PM
Arrived: 30-Oct-19 08:47 PM
Distance/Time
Traveled:
512nm/1:24
Distance/Time
To Go:
Arrived

Flight Plot

Page will automatically refresh every two minutes.

Flight plan parsing failed; only flown route is shown


Map Options




Map Legend


Flown Route
Filed Route
Departure Airport
Arrival Airport
Navaid (VOR, NDB)
Fix

Horizontal Profiles

Position Reports

Time Latitude Longitude Heading Altitude Ground
Speed
30-Oct-19 18:50 40.787898 -111.979056 85 4234ft 0kts
30-Oct-19 18:51 40.787898 -111.979056 85 4234ft 0kts
30-Oct-19 18:52 40.787898 -111.979056 85 4234ft 0kts
30-Oct-19 18:53 40.787898 -111.979056 85 4234ft 0kts
30-Oct-19 18:54 40.787898 -111.979056 85 4234ft 0kts
30-Oct-19 18:55 40.787898 -111.979056 85 4234ft 0kts
30-Oct-19 18:56 40.787898 -111.979056 85 4234ft 0kts
30-Oct-19 18:57 40.787898 -111.979057 85 4235ft 0kts
30-Oct-19 18:58 40.787898 -111.979057 85 4235ft 0kts
30-Oct-19 18:59 40.787898 -111.979057 85 4235ft 0kts
30-Oct-19 19:00 40.787898 -111.979057 85 4235ft 0kts
30-Oct-19 19:01 40.787707 -111.979587 17 4235ft 2kts
30-Oct-19 19:02 40.787538 -111.979599 354 4234ft 0kts
30-Oct-19 19:03 40.787538 -111.979599 354 4234ft 0kts
30-Oct-19 19:04 40.787538 -111.979599 354 4234ft 0kts
30-Oct-19 19:05 40.787538 -111.979599 354 4234ft 0kts
30-Oct-19 19:06 40.787538 -111.979599 354 4234ft 0kts
30-Oct-19 19:07 40.787538 -111.979599 354 4234ft 0kts
30-Oct-19 19:08 40.787538 -111.979599 354 4234ft 0kts
30-Oct-19 19:09 40.787714 -111.979627 347 4234ft 3kts
30-Oct-19 19:10 40.789790 -111.979937 5 4234ft 7kts
30-Oct-19 19:11 40.790270 -111.977864 84 4234ft 0kts
30-Oct-19 19:12 40.790271 -111.977851 84 4234ft 0kts
30-Oct-19 19:13 40.790464 -111.977267 27 4234ft 5kts
30-Oct-19 19:14 40.795149 -111.977668 355 4234ft 20kts
30-Oct-19 19:15 40.800180 -111.978266 355 4235ft 16kts
30-Oct-19 19:16 40.804405 -111.978296 355 4234ft 14kts
30-Oct-19 19:17 40.807065 -111.978549 20 4234ft 0kts
30-Oct-19 19:18 40.807065 -111.978549 20 4234ft 0kts
30-Oct-19 19:19 40.807065 -111.978549 20 4234ft 0kts
30-Oct-19 19:20 40.807156 -111.978485 31 4234ft 5kts
30-Oct-19 19:21 40.803125 -111.976449 175 4235ft 79kts
30-Oct-19 19:22 40.757841 -111.969213 172 5478ft 188kts
30-Oct-19 19:23 40.694881 -111.956688 171 7277ft 248kts
30-Oct-19 19:24 40.621924 -111.951359 180 9671ft 276kts
30-Oct-19 19:25 40.538114 -111.951715 182 11268ft 330kts
30-Oct-19 19:27 40.442332 -111.951322 177 13619ft 355kts
30-Oct-19 19:28 40.342394 -111.943748 177 16223ft 369kts
30-Oct-19 19:29 40.238374 -111.942798 187 18646ft 382kts
30-Oct-19 19:30 40.131091 -111.960381 187 20836ft 397kts
30-Oct-19 19:31 40.019581 -111.976682 187 22852ft 411kts
30-Oct-19 19:32 39.904042 -111.993604 187 24657ft 426kts
30-Oct-19 19:33 39.785389 -112.010898 187 26286ft 439kts
30-Oct-19 19:34 39.662799 -112.028725 187 27843ft 450kts
30-Oct-19 19:35 39.536854 -112.046949 187 29235ft 462kts
30-Oct-19 19:36 39.408093 -112.065388 187 30609ft 471kts
30-Oct-19 19:37 39.277957 -112.083831 188 32207ft 472kts
30-Oct-19 19:38 39.149200 -112.107197 199 33911ft 462kts
30-Oct-19 19:39 39.033745 -112.177199 213 34517ft 468kts
30-Oct-19 19:40 38.921331 -112.259363 213 34504ft 462kts
30-Oct-19 19:41 38.810047 -112.340154 213 34490ft 462kts
30-Oct-19 19:42 38.698439 -112.420811 213 34490ft 461kts
30-Oct-19 19:43 38.587192 -112.500955 213 34491ft 460kts
30-Oct-19 19:43 38.494560 -112.567462 213 34491ft 459kts
30-Oct-19 19:45 38.364437 -112.660562 213 34490ft 459kts
30-Oct-19 19:46 38.253180 -112.739875 213 34466ft 460kts
30-Oct-19 19:46 38.160519 -112.805702 213 34460ft 459kts
30-Oct-19 19:47 38.049050 -112.884640 213 34464ft 460kts
30-Oct-19 19:49 37.919274 -112.976172 213 34467ft 455kts
30-Oct-19 19:49 37.827922 -113.040405 213 34455ft 456kts
30-Oct-19 19:50 37.717488 -113.119413 214 34446ft 456kts
30-Oct-19 19:51 37.608183 -113.199501 214 34446ft 456kts
30-Oct-19 19:52 37.498620 -113.279429 214 34446ft 456kts
30-Oct-19 19:53 37.389339 -113.358882 214 34447ft 456kts
30-Oct-19 19:54 37.279520 -113.438454 214 34447ft 455kts
30-Oct-19 19:55 37.170049 -113.517506 214 34458ft 455kts
30-Oct-19 19:56 37.060752 -113.596166 214 34466ft 454kts
30-Oct-19 19:57 36.952189 -113.674044 213 34471ft 454kts
30-Oct-19 19:58 36.843621 -113.751665 214 34465ft 453kts
30-Oct-19 19:59 36.734336 -113.829537 214 34466ft 453kts
30-Oct-19 20:00 36.624988 -113.907196 214 34465ft 452kts
30-Oct-19 20:01 36.516049 -113.984311 214 34447ft 452kts
30-Oct-19 20:02 36.407061 -114.061209 214 34435ft 451kts
30-Oct-19 20:03 36.297586 -114.138202 214 34429ft 452kts
30-Oct-19 20:04 36.188832 -114.214434 214 34424ft 451kts
30-Oct-19 20:05 36.082964 -114.295786 226 34426ft 443kts
30-Oct-19 20:06 35.999175 -114.405493 233 34421ft 439kts
30-Oct-19 20:07 35.918100 -114.517794 233 34421ft 437kts
30-Oct-19 20:08 35.837594 -114.628792 232 34415ft 438kts
30-Oct-19 20:09 35.757091 -114.739401 231 34420ft 438kts
30-Oct-19 20:10 35.675911 -114.850589 231 34421ft 437kts
30-Oct-19 20:11 35.594709 -114.961303 231 34420ft 437kts
30-Oct-19 20:12 35.513559 -115.072102 231 34427ft 437kts
30-Oct-19 20:13 35.430654 -115.180740 230 34409ft 437kts
30-Oct-19 20:14 35.347454 -115.289282 229 34384ft 437kts
30-Oct-19 20:15 35.264163 -115.397589 229 34383ft 437kts
30-Oct-19 20:16 35.181043 -115.505328 229 34382ft 436kts
30-Oct-19 20:17 35.097666 -115.612686 229 34382ft 436kts
30-Oct-19 20:18 35.014532 -115.718769 228 34386ft 436kts
30-Oct-19 20:19 34.930862 -115.825452 228 34386ft 434kts
30-Oct-19 20:20 34.848088 -115.930667 228 34386ft 433kts
30-Oct-19 20:21 34.764625 -116.036427 228 34394ft 434kts
30-Oct-19 20:22 34.681231 -116.142517 228 34393ft 433kts
30-Oct-19 20:23 34.598300 -116.247904 228 34392ft 433kts
30-Oct-19 20:24 34.515024 -116.353395 228 34391ft 431kts
30-Oct-19 20:25 34.432743 -116.458230 233 34391ft 430kts
30-Oct-19 20:26 34.372176 -116.585231 245 32002ft 442kts
30-Oct-19 20:27 34.319275 -116.714578 245 29264ft 433kts
30-Oct-19 20:28 34.267148 -116.844475 245 26411ft 426kts
30-Oct-19 20:29 34.215938 -116.971476 246 23564ft 417kts
30-Oct-19 20:30 34.178793 -117.102692 253 20699ft 407kts
30-Oct-19 20:31 34.143505 -117.231796 252 17840ft 399kts
30-Oct-19 20:32 34.108625 -117.358403 252 14844ft 387kts
30-Oct-19 20:33 34.078784 -117.476171 254 12224ft 345kts
30-Oct-19 20:34 34.051340 -117.584123 254 12067ft 332kts
30-Oct-19 20:35 34.025136 -117.686771 255 10966ft 328kts
30-Oct-19 20:36 34.013406 -117.787044 263 9924ft 275kts
30-Oct-19 20:37 34.004607 -117.877604 262 8183ft 265kts
30-Oct-19 20:38 33.995556 -117.969873 263 6423ft 270kts
30-Oct-19 20:39 33.987312 -118.052852 263 5076ft 247kts
30-Oct-19 20:40 33.980126 -118.125498 264 4029ft 230kts
30-Oct-19 20:41 33.973814 -118.190626 263 3642ft 213kts
30-Oct-19 20:42 33.967350 -118.252095 264 2643ft 200kts
30-Oct-19 20:43 33.962033 -118.304715 264 1764ft 177kts
30-Oct-19 20:44 33.956118 -118.362616 265 802ft 156kts
30-Oct-19 20:45 33.950591 -118.416587 266 125ft 117kts
30-Oct-19 20:46 33.948013 -118.427312 215 116ft 13kts
30-Oct-19 20:47 33.946510 -118.425580 83 116ft 9kts
30-Oct-19 20:48 33.946932 -118.421395 82 121ft 15kts
30-Oct-19 20:49 33.947650 -118.414436 80 125ft 21kts
30-Oct-19 20:50 33.948440 -118.408004 83 127ft 18kts
30-Oct-19 20:51 33.949111 -118.401437 82 120ft 8kts
30-Oct-19 20:52 33.948581 -118.401074 217 120ft 2kts
30-Oct-19 20:53 33.947928 -118.401254 186 121ft 0kts

Navigation Log

Ident Type
Flight plan parsing failed, navigation log unavailable